createdAt,value
2023-05-17T00:00:12.497Z,1.00
2023-05-17T00:01:14.280Z,99.90
2023-05-17T00:02:16.007Z,99.90
2023-05-17T00:03:17.636Z,99.90
2023-05-17T00:04:19.304Z,99.90
2023-05-17T00:05:20.967Z,99.90
2023-05-17T00:06:22.879Z,99.90
2023-05-17T00:07:24.563Z,1.00
2023-05-17T00:08:26.236Z,1.00
2023-05-17T00:09:28.000Z,1.00
2023-05-17T00:10:30.018Z,1.00
2023-05-17T00:11:31.668Z,1.00
2023-05-17T00:12:33.302Z,1.00
2023-05-17T00:13:35.014Z,1.00
2023-05-17T00:14:36.685Z,99.90
2023-05-17T00:15:38.292Z,99.90
2023-05-17T00:16:40.316Z,1.00
2023-05-17T00:17:42.009Z,1.00
2023-05-17T00:18:43.808Z,1.00
2023-05-17T00:19:45.616Z,1.00
2023-05-17T00:20:47.292Z,1.00
2023-05-17T00:21:48.936Z,1.00
2023-05-17T00:22:50.600Z,1.00
2023-05-17T00:23:52.300Z,1.00
2023-05-17T00:24:53.907Z,1.00
2023-05-17T00:25:55.655Z,1.00
2023-05-17T00:26:57.279Z,1.00
2023-05-17T00:27:58.886Z,1.00
2023-05-17T00:29:00.718Z,1.00
2023-05-17T00:30:02.541Z,1.00
2023-05-17T00:31:04.282Z,1.00
2023-05-17T00:32:06.353Z,1.00
2023-05-17T00:33:08.151Z,1.00
2023-05-17T00:34:09.953Z,1.00
2023-05-17T00:35:11.603Z,99.90
2023-05-17T00:36:13.462Z,99.90
2023-05-17T00:37:15.147Z,1.00
2023-05-17T00:38:16.748Z,1.00
2023-05-17T00:39:18.455Z,1.00
2023-05-17T00:40:20.272Z,1.00
2023-05-17T00:41:21.867Z,1.00
2023-05-17T00:42:23.595Z,1.00
2023-05-17T00:43:26.121Z,1.00
2023-05-17T00:44:27.809Z,1.00
2023-05-17T00:45:29.543Z,1.00
2023-05-17T00:46:33.717Z,1.00
2023-05-17T00:47:35.398Z,1.00
2023-05-17T00:48:37.324Z,99.90
2023-05-17T00:49:39.256Z,99.90
2023-05-17T00:50:41.500Z,1.00
2023-05-17T00:51:44.345Z,96.60
2023-05-17T00:52:46.741Z,1.00
2023-05-17T00:53:48.567Z,64.90
2023-05-17T00:54:51.370Z,1.00
2023-05-17T00:55:55.388Z,1.00
2023-05-17T00:56:57.902Z,99.90
2023-05-17T00:57:59.986Z,99.90
2023-05-17T00:59:04.970Z,99.90
2023-05-17T01:00:07.258Z,99.90
2023-05-17T01:01:09.030Z,1.00
2023-05-17T01:02:11.851Z,99.90
2023-05-17T01:03:13.668Z,99.90
2023-05-17T01:04:15.953Z,99.90
2023-05-17T01:05:17.879Z,99.90
2023-05-17T01:06:19.676Z,99.90
2023-05-17T01:07:21.300Z,99.90
2023-05-17T01:08:22.961Z,99.90
2023-05-17T01:09:24.691Z,1.00
2023-05-17T01:10:37.696Z,1.00
2023-05-17T01:12:09.101Z,99.90
2023-05-17T01:13:21.989Z,1.00
2023-05-17T01:14:44.556Z,1.00
2023-05-17T01:15:53.464Z,99.90
2023-05-17T01:17:06.027Z,1.00
2023-05-17T01:18:24.571Z,1.00
2023-05-17T01:19:37.472Z,1.00
2023-05-17T01:20:43.901Z,1.00
2023-05-17T01:21:55.506Z,1.00
2023-05-17T01:23:16.219Z,1.00
2023-05-17T01:24:39.788Z,99.90
2023-05-17T01:26:08.859Z,78.50
2023-05-17T01:27:11.618Z,99.90
2023-05-17T01:31:41.320Z,67.10
2023-05-17T01:32:43.637Z,1.00
2023-05-17T01:33:45.575Z,1.00
2023-05-17T01:34:47.306Z,1.00
2023-05-17T01:35:48.954Z,99.90
2023-05-17T01:36:50.576Z,99.90
2023-05-17T01:37:55.493Z,99.90
2023-05-17T01:38:57.116Z,1.00
2023-05-17T01:39:58.942Z,1.00
2023-05-17T01:46:06.649Z,99.90
2023-05-17T01:47:19.682Z,99.90
2023-05-17T01:48:28.710Z,20.90
2023-05-17T01:49:32.632Z,1.00
2023-05-17T01:50:36.146Z,1.00
2023-05-17T01:51:47.458Z,1.00
2023-05-17T01:53:08.976Z,1.00
2023-05-17T01:54:13.064Z,1.00
2023-05-17T01:55:19.834Z,1.00
2023-05-17T01:56:27.760Z,1.00
2023-05-17T01:57:35.389Z,1.00
2023-05-17T01:58:46.253Z,1.00
2023-05-17T01:59:49.795Z,1.00
2023-05-17T02:00:55.727Z,1.00
2023-05-17T02:02:08.712Z,1.00
2023-05-17T02:03:17.860Z,99.90
2023-05-17T02:04:19.601Z,1.00
2023-05-17T02:05:21.404Z,1.00
2023-05-17T02:06:23.128Z,1.00
2023-05-17T02:07:24.941Z,1.00
2023-05-17T02:08:26.621Z,1.00
2023-05-17T02:09:28.506Z,1.00
2023-05-17T02:10:30.188Z,1.00
2023-05-17T02:11:32.278Z,1.00
2023-05-17T02:12:34.209Z,1.00
2023-05-17T02:13:35.990Z,1.00
2023-05-17T02:14:37.619Z,50.30
2023-05-17T02:15:39.240Z,99.90
2023-05-17T02:16:41.126Z,99.90
2023-05-17T02:17:42.858Z,99.90
2023-05-17T02:18:44.879Z,99.90
2023-05-17T02:19:46.575Z,99.90
2023-05-17T02:20:48.308Z,99.90
2023-05-17T02:21:49.999Z,99.90
2023-05-17T02:22:51.638Z,99.90
2023-05-17T02:23:53.570Z,99.90
2023-05-17T02:24:55.206Z,1.00
2023-05-17T02:25:56.850Z,99.90
2023-05-17T02:26:58.675Z,99.90
2023-05-17T02:28:00.677Z,1.00
2023-05-17T02:29:02.351Z,1.00
2023-05-17T02:30:04.627Z,99.90
2023-05-17T02:31:09.185Z,99.90
2023-05-17T02:32:11.064Z,99.90
2023-05-17T02:33:12.817Z,99.90
2023-05-17T02:34:14.593Z,99.90
2023-05-17T02:35:16.258Z,99.90
2023-05-17T02:36:17.911Z,1.00
2023-05-17T02:37:19.560Z,11.00
2023-05-17T02:38:21.687Z,99.90
2023-05-17T02:39:23.843Z,99.90
2023-05-17T02:40:25.594Z,1.00
2023-05-17T02:41:27.306Z,1.00
2023-05-17T02:42:28.968Z,1.00
2023-05-17T02:43:31.027Z,99.90
2023-05-17T02:44:32.824Z,1.00
2023-05-17T02:45:34.437Z,1.00
2023-05-17T02:46:38.318Z,1.00
2023-05-17T02:47:40.389Z,99.90
2023-05-17T02:48:42.108Z,1.00
2023-05-17T02:49:43.763Z,1.00
2023-05-17T02:50:45.448Z,1.00
2023-05-17T02:51:47.070Z,1.00
2023-05-17T02:52:48.710Z,1.00
2023-05-17T02:53:50.433Z,94.40
2023-05-17T02:54:52.114Z,1.00
2023-05-17T02:55:57.855Z,1.00
2023-05-17T02:56:59.506Z,1.00
2023-05-17T02:58:01.195Z,1.00
2023-05-17T02:59:02.859Z,1.00
2023-05-17T03:00:06.083Z,99.90
2023-05-17T03:01:07.783Z,99.90
2023-05-17T03:02:09.408Z,1.00
2023-05-17T03:03:11.166Z,1.00
2023-05-17T03:04:12.953Z,1.00
2023-05-17T03:05:14.730Z,61.70
2023-05-17T03:06:16.895Z,99.90
2023-05-17T03:07:18.526Z,1.00
2023-05-17T03:08:20.251Z,1.00
2023-05-17T03:09:22.640Z,1.00
2023-05-17T03:10:24.276Z,1.00
2023-05-17T03:11:26.337Z,1.00
2023-05-17T03:12:29.428Z,1.00
2023-05-17T03:13:31.492Z,1.00
2023-05-17T03:14:33.207Z,1.00
2023-05-17T03:15:34.875Z,99.90
2023-05-17T03:16:36.543Z,1.00
2023-05-17T03:17:38.238Z,1.00
2023-05-17T03:18:40.086Z,1.00
2023-05-17T03:19:41.965Z,1.00
2023-05-17T03:20:43.665Z,1.00
2023-05-17T03:21:45.420Z,1.00
2023-05-17T03:22:47.411Z,1.00
2023-05-17T03:23:49.137Z,1.00
2023-05-17T03:24:50.752Z,1.00
2023-05-17T03:25:52.422Z,1.00
2023-05-17T03:26:54.109Z,93.00
2023-05-17T03:27:55.774Z,99.90
2023-05-17T03:28:57.381Z,1.00
2023-05-17T03:29:59.012Z,1.00
2023-05-17T03:31:00.834Z,1.00
2023-05-17T03:32:02.560Z,1.00
2023-05-17T03:33:04.449Z,1.00
2023-05-17T03:34:06.286Z,1.00
2023-05-17T03:35:08.524Z,99.90
2023-05-17T03:36:10.286Z,99.90
2023-05-17T03:37:11.925Z,1.00
2023-05-17T03:38:13.615Z,1.00
2023-05-17T03:39:15.236Z,99.90
2023-05-17T03:40:17.028Z,99.90
2023-05-17T03:41:18.935Z,99.90
2023-05-17T03:42:20.717Z,99.90
2023-05-17T03:43:22.352Z,1.00
2023-05-17T03:44:24.034Z,1.00
2023-05-17T03:45:27.767Z,1.00
2023-05-17T03:46:29.790Z,1.00
2023-05-17T03:47:31.500Z,1.00
2023-05-17T03:48:35.282Z,1.00
2023-05-17T03:49:37.837Z,1.00
2023-05-17T03:50:41.047Z,1.00
2023-05-17T03:51:42.800Z,1.00
2023-05-17T03:52:46.066Z,99.90
2023-05-17T03:53:47.808Z,99.90
2023-05-17T03:54:49.457Z,1.00
2023-05-17T03:55:51.165Z,1.00
2023-05-17T03:56:52.806Z,1.00
2023-05-17T03:57:54.428Z,1.00
2023-05-17T03:58:56.059Z,1.00
2023-05-17T03:59:57.709Z,79.10
2023-05-17T04:00:59.358Z,99.90
2023-05-17T04:02:01.202Z,99.90
2023-05-17T04:03:03.304Z,99.90
2023-05-17T04:04:05.975Z,1.00
2023-05-17T04:05:07.962Z,99.90
2023-05-17T04:06:10.163Z,99.90
2023-05-17T04:07:11.801Z,1.00
2023-05-17T04:08:13.658Z,1.00
2023-05-17T04:09:15.678Z,1.00
2023-05-17T04:10:17.319Z,1.00
2023-05-17T04:11:23.711Z,1.00
2023-05-17T04:12:25.767Z,99.90
2023-05-17T04:13:27.407Z,3.60
2023-05-17T04:14:29.100Z,21.00
2023-05-17T04:15:30.929Z,99.90
2023-05-17T04:16:32.761Z,99.90
2023-05-17T04:17:34.539Z,99.90
2023-05-17T04:18:37.626Z,98.80
2023-05-17T04:19:39.420Z,1.00
2023-05-17T04:20:41.195Z,1.00
2023-05-17T04:21:44.265Z,1.00
2023-05-17T04:22:45.909Z,1.00
2023-05-17T04:23:47.532Z,1.00
2023-05-17T04:24:49.154Z,1.00
2023-05-17T04:25:50.863Z,1.00
2023-05-17T04:26:52.524Z,99.90
2023-05-17T04:27:54.240Z,1.00
2023-05-17T04:28:55.883Z,1.00
2023-05-17T04:29:57.544Z,99.90
2023-05-17T04:30:59.178Z,99.90
2023-05-17T04:32:00.877Z,99.90
2023-05-17T04:33:02.715Z,1.00
2023-05-17T04:34:04.478Z,1.00
2023-05-17T04:35:06.431Z,1.00
2023-05-17T04:36:08.739Z,1.00
2023-05-17T04:37:10.615Z,1.00
2023-05-17T04:38:12.690Z,1.00
2023-05-17T04:39:14.319Z,1.00
2023-05-17T04:40:16.124Z,1.00
2023-05-17T04:41:17.774Z,1.00
2023-05-17T04:42:19.455Z,99.90
2023-05-17T04:43:21.118Z,99.90
2023-05-17T04:44:22.798Z,1.00
2023-05-17T04:45:24.976Z,99.90
2023-05-17T04:46:26.740Z,99.90
2023-05-17T04:47:28.458Z,1.00
2023-05-17T04:48:32.083Z,1.00
2023-05-17T04:49:34.587Z,1.00
2023-05-17T04:50:36.266Z,1.00
2023-05-17T04:51:37.966Z,99.90
2023-05-17T04:52:39.637Z,1.00
2023-05-17T04:53:41.330Z,1.00
2023-05-17T04:54:43.032Z,99.90
2023-05-17T04:55:45.003Z,1.00
2023-05-17T04:56:46.634Z,1.00
2023-05-17T04:57:48.358Z,99.90
2023-05-17T04:58:52.146Z,1.00
2023-05-17T04:59:54.447Z,1.00
2023-05-17T05:00:56.235Z,1.00
2023-05-17T05:01:57.946Z,1.00
2023-05-17T05:02:59.662Z,1.00
2023-05-17T05:04:06.845Z,99.90
2023-05-17T05:05:11.920Z,99.90
2023-05-17T05:06:13.624Z,99.90
2023-05-17T05:07:15.290Z,3.90
2023-05-17T05:08:16.907Z,1.00
2023-05-17T05:09:18.974Z,1.00
2023-05-17T05:10:20.836Z,99.90
2023-05-17T05:11:22.564Z,99.90
2023-05-17T05:12:25.123Z,11.40
2023-05-17T05:13:26.757Z,1.00
2023-05-17T05:14:28.575Z,1.00
2023-05-17T05:15:31.686Z,1.00
2023-05-17T05:16:33.313Z,1.00
2023-05-17T05:17:35.270Z,1.00
2023-05-17T05:18:37.249Z,1.00
2023-05-17T05:19:39.203Z,1.00
2023-05-17T05:20:40.900Z,1.00
2023-05-17T05:21:47.655Z,99.90
2023-05-17T05:22:49.395Z,5.30
2023-05-17T05:23:51.144Z,68.60
2023-05-17T05:24:52.893Z,95.70
2023-05-17T05:25:54.534Z,1.00
2023-05-17T05:26:56.217Z,1.00
2023-05-17T05:27:58.010Z,1.00
2023-05-17T05:28:59.688Z,1.00
2023-05-17T05:30:02.058Z,1.00
2023-05-17T05:31:03.739Z,1.00
2023-05-17T05:32:05.888Z,99.90
2023-05-17T05:33:10.759Z,1.00
2023-05-17T05:34:12.602Z,99.90
2023-05-17T05:35:14.280Z,99.90
2023-05-17T05:36:15.941Z,99.90
2023-05-17T05:37:19.234Z,19.10
2023-05-17T05:38:20.955Z,2.40
2023-05-17T05:39:22.718Z,35.70
2023-05-17T05:40:24.516Z,32.30
2023-05-17T05:41:26.126Z,1.00
2023-05-17T05:42:27.810Z,18.00
2023-05-17T05:43:29.441Z,1.00
2023-05-17T05:44:31.630Z,1.00
2023-05-17T05:45:33.344Z,1.00
2023-05-17T05:46:35.009Z,1.00
2023-05-17T05:47:36.641Z,1.00
2023-05-17T05:48:41.622Z,1.00
2023-05-17T05:49:43.254Z,1.00
2023-05-17T05:50:45.045Z,1.00
2023-05-17T05:51:46.683Z,1.00
2023-05-17T05:52:48.352Z,1.00
2023-05-17T05:53:50.048Z,1.00
2023-05-17T05:54:51.684Z,1.00
2023-05-17T05:55:53.439Z,1.00
2023-05-17T05:56:55.248Z,1.00
2023-05-17T05:57:59.214Z,1.00
2023-05-17T05:59:00.939Z,1.00
2023-05-17T06:00:03.208Z,1.00
2023-05-17T06:05:48.955Z,1.00
2023-05-17T06:06:50.943Z,1.00
2023-05-17T06:07:52.763Z,1.00
2023-05-17T06:08:54.440Z,1.00
2023-05-17T06:09:56.070Z,1.00
2023-05-17T06:10:57.708Z,1.00
2023-05-17T06:11:59.430Z,1.00
2023-05-17T06:13:01.231Z,1.00
2023-05-17T06:14:02.890Z,1.00
2023-05-17T06:15:04.930Z,1.00
2023-05-17T06:16:06.888Z,1.00
2023-05-17T06:17:08.517Z,1.00
2023-05-17T06:18:10.194Z,1.00
2023-05-17T06:19:12.083Z,1.00
2023-05-17T06:20:14.884Z,1.00
2023-05-17T06:21:18.335Z,1.00
2023-05-17T06:22:19.941Z,1.00
2023-05-17T06:23:21.600Z,1.00
2023-05-17T06:24:23.255Z,1.00
2023-05-17T06:25:24.930Z,1.00
2023-05-17T06:26:27.586Z,1.00
2023-05-17T06:27:31.218Z,1.00
2023-05-17T06:28:32.849Z,1.00
2023-05-17T06:29:34.479Z,1.00
2023-05-17T06:30:36.544Z,1.00
2023-05-17T06:31:38.351Z,1.00
2023-05-17T06:32:40.079Z,1.00
2023-05-17T06:33:41.867Z,1.00
2023-05-17T06:34:43.531Z,1.00
2023-05-17T06:35:55.662Z,1.00
2023-05-17T06:36:58.764Z,1.00
2023-05-17T06:38:00.391Z,99.90
2023-05-17T06:39:02.219Z,99.90
2023-05-17T06:40:14.772Z,99.90
2023-05-17T06:41:17.939Z,99.90
2023-05-17T06:42:19.615Z,99.90
2023-05-17T06:43:21.960Z,99.90
2023-05-17T06:44:23.614Z,99.90
2023-05-17T06:45:27.063Z,99.90
2023-05-17T06:46:28.724Z,99.90
2023-05-17T06:47:30.656Z,99.90
2023-05-17T06:48:32.536Z,99.90
2023-05-17T06:49:34.360Z,99.90
2023-05-17T06:50:36.102Z,99.90
2023-05-17T06:51:37.756Z,99.90
2023-05-17T06:52:39.607Z,21.20
2023-05-17T06:53:41.229Z,26.10
2023-05-17T06:54:42.861Z,99.90
2023-05-17T06:55:44.834Z,99.90
2023-05-17T06:56:46.580Z,99.90
2023-05-17T06:57:48.234Z,99.90
2023-05-17T06:58:49.863Z,99.90
2023-05-17T06:59:52.212Z,43.90
2023-05-17T07:00:53.891Z,17.20
2023-05-17T07:01:55.788Z,1.00
2023-05-17T07:02:57.597Z,1.00
2023-05-17T07:03:59.309Z,1.00
2023-05-17T07:05:01.080Z,1.00
2023-05-17T07:06:03.378Z,1.00
2023-05-17T07:07:05.362Z,1.00
2023-05-17T07:08:07.046Z,1.00
2023-05-17T07:09:08.657Z,1.00
2023-05-17T07:10:10.622Z,51.70
2023-05-17T07:11:12.408Z,1.00
2023-05-17T07:12:14.070Z,1.00
2023-05-17T07:13:15.820Z,1.00
2023-05-17T07:14:17.435Z,1.00
2023-05-17T07:15:19.200Z,1.00
2023-05-17T07:16:20.850Z,1.00
2023-05-17T07:17:22.781Z,1.00
2023-05-17T07:18:24.660Z,1.00
2023-05-17T07:19:26.683Z,1.00
2023-05-17T07:20:28.600Z,1.00
2023-05-17T07:21:31.078Z,1.00
2023-05-17T07:22:32.758Z,1.00
2023-05-17T07:23:34.412Z,1.00
2023-05-17T07:24:36.078Z,1.00
2023-05-17T07:25:38.754Z,1.00
2023-05-17T07:26:40.704Z,1.00
2023-05-17T07:27:42.368Z,1.00
2023-05-17T07:28:44.248Z,1.00
2023-05-17T07:29:45.942Z,1.00
2023-05-17T07:30:47.599Z,1.00
2023-05-17T07:31:49.267Z,1.00
2023-05-17T07:32:51.761Z,1.00
2023-05-17T07:33:53.578Z,1.00
2023-05-17T07:34:55.337Z,1.00
2023-05-17T07:35:57.046Z,1.00
2023-05-17T07:36:58.767Z,1.00
2023-05-17T07:38:00.418Z,1.00
2023-05-17T07:39:02.305Z,1.00
2023-05-17T07:40:06.644Z,1.00
2023-05-17T07:41:13.241Z,1.00
2023-05-17T07:42:17.058Z,1.00
2023-05-17T07:43:18.835Z,1.00
2023-05-17T07:44:21.838Z,1.00
2023-05-17T07:45:23.502Z,1.00
2023-05-17T07:46:25.863Z,1.00
2023-05-17T07:47:27.693Z,1.00
2023-05-17T07:48:29.754Z,1.00
2023-05-17T07:49:32.213Z,1.00
2023-05-17T07:50:33.835Z,1.00
2023-05-17T07:51:36.386Z,1.00
2023-05-17T07:52:38.178Z,1.00
2023-05-17T07:53:39.823Z,1.00
2023-05-17T07:54:41.465Z,1.00
2023-05-17T07:55:47.691Z,1.00
2023-05-17T07:56:49.427Z,1.00
2023-05-17T07:57:52.397Z,1.00
2023-05-17T07:58:54.151Z,1.00
2023-05-17T07:59:55.821Z,1.00
2023-05-17T08:00:57.468Z,1.00
2023-05-17T08:01:59.159Z,1.00
2023-05-17T08:07:40.057Z,1.00
2023-05-17T08:08:42.331Z,1.00
2023-05-17T08:09:45.432Z,1.00
2023-05-17T08:10:48.173Z,1.00
2023-05-17T08:11:52.337Z,1.00
2023-05-17T08:12:54.641Z,1.00
2023-05-17T08:13:56.558Z,1.00
2023-05-17T08:14:58.222Z,99.90
2023-05-17T08:16:12.666Z,99.90
2023-05-17T08:17:15.663Z,99.90
2023-05-17T08:18:17.457Z,99.90
2023-05-17T08:19:19.899Z,99.90
2023-05-17T08:20:21.935Z,99.90
2023-05-17T08:21:24.487Z,99.90
2023-05-17T08:22:27.416Z,99.90
2023-05-17T08:23:29.120Z,99.90
2023-05-17T08:24:30.743Z,99.90
2023-05-17T08:25:32.587Z,99.90
2023-05-17T08:26:34.694Z,99.90
2023-05-17T08:27:36.489Z,99.90
2023-05-17T08:28:38.400Z,99.90
2023-05-17T08:29:40.094Z,99.90
2023-05-17T08:30:41.761Z,99.90
2023-05-17T08:31:43.451Z,99.90
2023-05-17T08:32:45.423Z,99.90
2023-05-17T08:33:47.214Z,99.90
2023-05-17T08:34:49.004Z,99.90
2023-05-17T08:35:50.753Z,99.90
2023-05-17T08:36:53.511Z,99.90
2023-05-17T08:37:55.257Z,99.90
2023-05-17T08:38:56.929Z,99.90
2023-05-17T08:39:58.625Z,99.90
2023-05-17T08:41:00.487Z,99.90
2023-05-17T08:42:03.175Z,99.90
2023-05-17T08:43:05.094Z,99.90
2023-05-17T08:44:07.548Z,99.90
2023-05-17T08:45:11.052Z,99.90
2023-05-17T08:46:14.538Z,99.90
2023-05-17T08:47:26.218Z,99.90
2023-05-17T08:48:31.307Z,99.90
2023-05-17T08:49:34.488Z,99.90
2023-05-17T08:50:38.176Z,99.90
2023-05-17T08:51:42.214Z,99.90
2023-05-17T08:52:46.055Z,99.90
2023-05-17T08:53:48.290Z,99.90
2023-05-17T08:54:49.961Z,99.90
2023-05-17T08:55:57.485Z,99.90
2023-05-17T08:57:02.129Z,99.90
2023-05-17T08:58:05.395Z,99.90
2023-05-17T08:59:10.298Z,99.90
2023-05-17T09:00:16.146Z,99.90
2023-05-17T09:01:18.293Z,99.90
2023-05-17T09:02:21.922Z,99.90
2023-05-17T09:03:24.113Z,99.90
2023-05-17T09:04:26.048Z,99.90
2023-05-17T09:05:28.503Z,99.90
2023-05-17T09:06:31.830Z,99.90
2023-05-17T09:07:33.492Z,99.90
2023-05-17T09:08:37.038Z,99.90
2023-05-17T09:09:38.838Z,99.90
2023-05-17T09:10:41.605Z,99.90
2023-05-17T09:11:43.239Z,99.90
2023-05-17T09:12:44.980Z,99.90
2023-05-17T09:13:46.677Z,99.90
2023-05-17T09:14:48.909Z,99.90
2023-05-17T09:15:50.906Z,99.90
2023-05-17T09:16:59.809Z,99.90
2023-05-17T09:18:01.956Z,99.90
2023-05-17T09:19:05.961Z,99.90
2023-05-17T09:20:08.634Z,99.90
2023-05-17T09:21:13.665Z,99.90
2023-05-17T09:22:18.839Z,99.90
2023-05-17T09:23:22.278Z,99.90
2023-05-17T09:24:30.961Z,99.90
2023-05-17T09:25:32.864Z,99.90
2023-05-17T09:26:42.228Z,99.90
2023-05-17T09:27:43.860Z,99.90
2023-05-17T09:28:45.906Z,99.90
2023-05-17T09:29:48.360Z,99.90
2023-05-17T09:30:50.265Z,99.90
2023-05-17T09:31:51.990Z,99.90
2023-05-17T09:32:57.809Z,99.90
2023-05-17T09:33:59.567Z,99.90
2023-05-17T09:35:02.682Z,99.90
2023-05-17T09:36:14.908Z,99.90
2023-05-17T09:37:18.212Z,99.90
2023-05-17T09:38:25.999Z,99.90
2023-05-17T09:39:27.685Z,99.90
2023-05-17T09:40:29.621Z,99.90
2023-05-17T09:41:32.711Z,99.90
2023-05-17T09:42:37.230Z,99.90
2023-05-17T09:43:39.218Z,99.90
2023-05-17T09:44:57.785Z,99.90
2023-05-17T09:45:59.751Z,99.90
2023-05-17T09:47:01.465Z,99.90
2023-05-17T09:48:16.987Z,99.90
2023-05-17T09:49:18.818Z,99.90
2023-05-17T09:50:23.746Z,99.90
2023-05-17T09:51:34.583Z,99.90
2023-05-17T09:52:37.026Z,99.90
2023-05-17T09:53:40.753Z,99.90
2023-05-17T09:54:42.386Z,99.90
2023-05-17T09:55:48.560Z,99.90
2023-05-17T09:56:57.599Z,99.90
2023-05-17T09:58:03.788Z,99.90
2023-05-17T09:59:12.925Z,99.90
2023-05-17T10:00:17.629Z,99.90
2023-05-17T10:01:19.383Z,99.90
2023-05-17T10:02:23.185Z,99.90
2023-05-17T10:03:27.709Z,99.90
2023-05-17T10:04:31.834Z,99.90
2023-05-17T10:05:33.891Z,99.90
2023-05-17T10:07:47.570Z,99.90
2023-05-17T10:08:56.659Z,99.90
2023-05-17T10:09:58.646Z,99.90
2023-05-17T10:11:06.453Z,99.90
2023-05-17T10:12:10.343Z,99.90
2023-05-17T10:13:15.493Z,99.90
2023-05-17T10:14:34.933Z,99.90
2023-05-17T10:15:38.503Z,99.90
2023-05-17T10:16:40.832Z,99.90
2023-05-17T10:17:45.457Z,99.90
2023-05-17T10:18:49.385Z,99.90
2023-05-17T10:19:52.388Z,99.90
2023-05-17T10:20:54.854Z,99.90
2023-05-17T10:22:05.193Z,99.90
2023-05-17T10:23:14.326Z,99.90
2023-05-17T10:24:16.706Z,99.90
2023-05-17T10:25:18.930Z,99.90
2023-05-17T10:26:20.864Z,99.90
2023-05-17T10:27:23.885Z,99.90
2023-05-17T10:28:28.621Z,99.90
2023-05-17T10:29:34.750Z,99.90
2023-05-17T10:30:37.464Z,99.90
2023-05-17T10:31:43.472Z,99.90
2023-05-17T10:32:50.053Z,99.90
2023-05-17T10:33:52.558Z,99.90
2023-05-17T10:35:09.300Z,99.90
2023-05-17T10:36:17.266Z,99.90
2023-05-17T10:37:20.739Z,99.90
2023-05-17T10:38:28.919Z,99.90
2023-05-17T10:39:38.811Z,99.90
2023-05-17T10:40:42.446Z,99.90
2023-05-17T10:41:46.496Z,99.90
2023-05-17T10:42:52.237Z,99.90
2023-05-17T10:43:55.238Z,99.90
2023-05-17T10:44:56.897Z,99.90
2023-05-17T10:46:00.177Z,99.90
2023-05-17T10:47:02.666Z,99.90
2023-05-17T10:48:08.076Z,99.90
2023-05-17T10:49:11.227Z,99.90
2023-05-17T10:50:14.816Z,99.90
2023-05-17T10:51:26.237Z,99.90
2023-05-17T10:52:27.870Z,99.90
2023-05-17T10:53:29.654Z,99.90
2023-05-17T10:54:41.431Z,99.90
2023-05-17T10:55:43.993Z,99.90
2023-05-17T10:56:54.109Z,99.90
2023-05-17T10:58:10.784Z,99.90
2023-05-17T10:59:29.428Z,99.90
2023-05-17T11:00:33.337Z,99.90
2023-05-17T11:01:52.551Z,99.90
2023-05-17T11:03:12.372Z,99.90
2023-05-17T11:04:50.928Z,99.90
2023-05-17T11:06:13.180Z,99.90
2023-05-17T11:07:27.291Z,99.90
2023-05-17T11:08:29.117Z,99.90
2023-05-17T11:09:32.430Z,99.90
2023-05-17T11:10:36.088Z,99.90
2023-05-17T11:11:37.818Z,99.90
2023-05-17T11:12:44.102Z,99.90
2023-05-17T11:13:54.998Z,99.90
2023-05-17T11:14:56.737Z,99.90
2023-05-17T11:16:07.264Z,99.90
2023-05-17T11:17:24.720Z,99.90
2023-05-17T11:18:30.427Z,99.90
2023-05-17T11:19:33.952Z,99.90
2023-05-17T11:20:36.892Z,99.90
2023-05-17T11:21:48.632Z,99.90
2023-05-17T11:23:00.939Z,99.90
2023-05-17T11:24:05.378Z,99.90
2023-05-17T11:25:13.099Z,99.90
2023-05-17T11:26:33.169Z,99.90
2023-05-17T11:27:45.895Z,99.90
2023-05-17T11:28:47.817Z,99.90
2023-05-17T11:29:49.562Z,99.90
2023-05-17T11:31:00.364Z,99.90
2023-05-17T11:32:07.055Z,99.90
2023-05-17T11:33:20.556Z,99.90
2023-05-17T11:34:33.620Z,99.90
2023-05-17T11:35:37.283Z,99.90
2023-05-17T11:36:54.244Z,99.90
2023-05-17T11:38:14.258Z,99.90
2023-05-17T11:39:19.099Z,99.90
2023-05-17T11:40:28.252Z,99.90
2023-05-17T11:41:30.625Z,99.90
2023-05-17T11:42:33.456Z,99.90
2023-05-17T11:43:35.358Z,99.90
2023-05-17T11:44:37.786Z,99.90
2023-05-17T11:45:45.995Z,99.90
2023-05-17T11:46:47.732Z,99.90
2023-05-17T11:47:49.483Z,99.90
2023-05-17T11:48:53.012Z,99.90
2023-05-17T11:50:00.255Z,99.90
2023-05-17T11:51:03.663Z,99.90
2023-05-17T11:52:06.406Z,99.90
2023-05-17T11:53:10.014Z,99.90
2023-05-17T11:54:14.386Z,99.90
2023-05-17T11:55:16.671Z,99.90
2023-05-17T11:56:24.094Z,99.90
2023-05-17T11:57:32.419Z,99.90
2023-05-17T11:58:35.359Z,99.90
2023-05-17T11:59:39.724Z,99.90
2023-05-17T12:00:42.494Z,99.90
2023-05-17T12:01:46.215Z,98.40
2023-05-17T12:02:48.241Z,99.90
2023-05-17T12:03:57.629Z,99.40
2023-05-17T12:04:59.732Z,99.90
2023-05-17T12:06:05.688Z,99.90
2023-05-17T12:07:10.427Z,99.90
2023-05-17T12:08:12.185Z,99.90
2023-05-17T12:09:17.704Z,99.90
2023-05-17T12:10:19.537Z,99.90
2023-05-17T12:11:22.003Z,99.90
2023-05-17T12:12:23.806Z,99.90
2023-05-17T12:13:29.394Z,99.90
2023-05-17T12:14:31.160Z,99.90
2023-05-17T12:15:33.176Z,99.90
2023-05-17T12:16:37.656Z,99.90
2023-05-17T12:17:44.286Z,99.90
2023-05-17T12:18:49.678Z,99.90
2023-05-17T12:19:55.335Z,99.90
2023-05-17T12:20:58.035Z,97.70
2023-05-17T12:22:12.638Z,99.90
2023-05-17T12:23:14.652Z,99.90
2023-05-17T12:24:16.588Z,99.40
2023-05-17T12:25:25.488Z,99.90
2023-05-17T12:26:27.317Z,99.90
2023-05-17T12:27:29.118Z,98.20
2023-05-17T12:28:30.937Z,99.90
2023-05-17T12:29:32.677Z,97.00
2023-05-17T12:30:34.342Z,97.20
2023-05-17T12:31:40.583Z,94.90
2023-05-17T12:32:42.716Z,95.80
2023-05-17T12:33:47.822Z,96.10
2023-05-17T12:34:49.729Z,94.80
2023-05-17T12:35:51.866Z,98.00
2023-05-17T12:36:54.194Z,95.20
2023-05-17T12:37:55.997Z,93.80
2023-05-17T12:38:57.947Z,90.60
2023-05-17T12:40:02.832Z,90.90
2023-05-17T12:41:06.655Z,91.00
2023-05-17T12:42:09.423Z,91.80
2023-05-17T12:43:11.188Z,91.60
2023-05-17T12:44:16.480Z,93.00
2023-05-17T12:45:18.562Z,91.90
2023-05-17T12:46:23.243Z,88.40
2023-05-17T12:47:30.541Z,91.60
2023-05-17T12:48:36.951Z,90.30
2023-05-17T12:49:40.107Z,92.00
2023-05-17T12:50:49.075Z,92.00
2023-05-17T12:51:50.870Z,92.90
2023-05-17T12:52:52.536Z,92.70
2023-05-17T12:53:59.760Z,91.10
2023-05-17T12:55:04.883Z,95.10
2023-05-17T12:56:07.088Z,91.50
2023-05-17T12:57:13.899Z,91.20
2023-05-17T12:58:15.743Z,89.30
2023-05-17T12:59:18.291Z,84.30
2023-05-17T13:00:21.425Z,89.40
2023-05-17T13:01:23.090Z,89.50
2023-05-17T13:02:24.809Z,85.70
2023-05-17T13:03:27.534Z,90.80
2023-05-17T13:04:31.979Z,91.80
2023-05-17T13:05:34.113Z,91.60
2023-05-17T13:06:52.950Z,91.50
2023-05-17T13:07:54.626Z,94.70
2023-05-17T13:09:00.358Z,93.60
2023-05-17T13:10:02.455Z,91.80
2023-05-17T13:11:12.346Z,93.10
2023-05-17T13:12:20.717Z,90.30
2023-05-17T13:13:22.566Z,92.70
2023-05-17T13:14:46.113Z,89.70
2023-05-17T13:15:48.150Z,89.20
2023-05-17T13:16:51.706Z,80.40
2023-05-17T13:17:53.555Z,80.70
2023-05-17T13:18:55.723Z,80.10
2023-05-17T13:19:58.711Z,72.30
2023-05-17T13:21:00.456Z,74.30
2023-05-17T13:22:03.408Z,73.10
2023-05-17T13:23:08.935Z,75.40
2023-05-17T13:24:11.072Z,79.20
2023-05-17T13:25:14.371Z,72.70
2023-05-17T13:26:18.515Z,70.70
2023-05-17T13:27:20.268Z,70.40
2023-05-17T13:28:21.912Z,66.80
2023-05-17T13:29:38.089Z,65.80
2023-05-17T13:30:41.066Z,75.70
2023-05-17T13:31:42.964Z,73.00
2023-05-17T13:32:45.142Z,70.90
2023-05-17T13:33:49.940Z,73.50
2023-05-17T13:34:51.729Z,73.70
2023-05-17T13:35:53.440Z,81.40
2023-05-17T13:36:57.136Z,74.00
2023-05-17T13:37:58.796Z,73.00
2023-05-17T13:39:02.019Z,75.20
2023-05-17T13:40:04.537Z,74.10
2023-05-17T13:41:07.741Z,79.00
2023-05-17T13:42:10.689Z,72.70
2023-05-17T13:43:12.599Z,71.60
2023-05-17T13:44:14.676Z,67.30
2023-05-17T13:45:16.558Z,77.80
2023-05-17T13:46:18.264Z,76.00
2023-05-17T13:47:20.077Z,70.10
2023-05-17T13:48:21.861Z,71.10
2023-05-17T13:49:23.585Z,75.40
2023-05-17T13:50:25.912Z,83.50
2023-05-17T13:51:27.785Z,79.20
2023-05-17T13:52:29.961Z,79.40
2023-05-17T13:53:31.576Z,73.60
2023-05-17T13:54:33.201Z,70.20
2023-05-17T13:55:34.820Z,70.20
2023-05-17T13:56:36.517Z,70.10
2023-05-17T13:57:38.160Z,68.30
2023-05-17T13:58:40.061Z,66.80
2023-05-17T13:59:43.601Z,70.50
2023-05-17T14:00:46.768Z,70.10
2023-05-17T14:01:48.419Z,67.10
2023-05-17T14:02:50.215Z,70.50
2023-05-17T14:03:52.017Z,71.60
2023-05-17T14:04:53.683Z,72.50
2023-05-17T14:05:55.470Z,73.40
2023-05-17T14:06:57.410Z,72.50
2023-05-17T14:07:59.191Z,73.70